Time;durP1;ratioP1;P1;durP2;ratioP2;P2;SDS_P1;SDS_P2;PMS_P1;PMS_P2;Temp;Humidity;BMP_temperature;BMP_pressure;BME280_temperature;BME280_humidity;BME280_pressure;Samples;Min_cycle;Max_cycle;Signal;HPM_P1;HPM_P2
2022/12/08 00:01:51;;;;;;;0.60;0.60;;;;;;;;;;5028130;28;20564;-76
2022/12/08 00:04:18;;;;;;;0.60;0.50;;;;;;;;;;4986202;28;20564;-76
2022/12/08 00:09:34;;;;;;;0.60;0.50;;;;;;;;;;5025234;28;20452;-76
2022/12/08 00:12:06;;;;;;;0.60;0.50;;;;;;;;;;5026980;28;20940;-76
2022/12/08 00:14:34;;;;;;;0.60;0.50;;;;;;;;;;4987438;28;20497;-76
2022/12/08 00:17:02;;;;;;;0.60;0.60;;;;;;;;;;5013042;28;20465;-75
2022/12/08 00:19:29;;;;;;;1.57;1.47;;;;;;;;;;5012578;28;20434;-76
2022/12/08 00:21:58;;;;;;;0.60;0.60;;;;;;;;;;5026120;28;20481;-76
2022/12/08 00:24:29;;;;;;;0.60;0.53;;;;;;;;;;5010548;28;20974;-76
2022/12/08 00:26:55;;;;;;;0.70;0.70;;;;;;;;;;5011112;28;20425;-76
2022/12/08 00:29:22;;;;;;;0.60;0.50;;;;;;;;;;4996355;28;20433;-75
2022/12/08 00:31:49;;;;;;;0.60;0.60;;;;;;;;;;5012643;28;20437;-76
2022/12/08 00:34:16;;;;;;;0.93;0.90;;;;;;;;;;5002177;28;21025;-75
2022/12/08 00:36:44;;;;;;;0.60;0.60;;;;;;;;;;5011014;28;20433;-76
2022/12/08 00:39:12;;;;;;;0.60;0.60;;;;;;;;;;5012486;28;20665;-75
2022/12/08 00:44:25;;;;;;;1.73;1.43;;;;;;;;;;5027144;28;20667;-76
2022/12/08 00:46:51;;;;;;;0.60;0.50;;;;;;;;;;5011053;28;20465;-76
2022/12/08 00:49:18;;;;;;;1.87;0.93;;;;;;;;;;5027317;28;20564;-76
2022/12/08 00:51:45;;;;;;;0.60;0.50;;;;;;;;;;5011744;28;20786;-76
2022/12/08 00:54:13;;;;;;;0.60;0.60;;;;;;;;;;5012461;28;20507;-75
2022/12/08 00:56:40;;;;;;;0.70;0.70;;;;;;;;;;5012417;28;20528;-75
2022/12/08 00:59:06;;;;;;;0.60;0.60;;;;;;;;;;5011341;28;20445;-75
2022/12/08 01:01:33;;;;;;;0.60;0.60;;;;;;;;;;5012235;28;20433;-76
2022/12/08 01:04:01;;;;;;;0.60;0.60;;;;;;;;;;5012265;28;20811;-76
2022/12/08 01:06:28;;;;;;;0.90;0.90;;;;;;;;;;5010789;28;20474;-76
2022/12/08 01:08:55;;;;;;;0.60;0.60;;;;;;;;;;5012218;28;20464;-75
2022/12/08 01:11:23;;;;;;;1.17;0.83;;;;;;;;;;5026015;28;20446;-76
2022/12/08 01:13:52;;;;;;;0.60;0.60;;;;;;;;;;5009712;28;20991;-75
2022/12/08 01:16:19;;;;;;;0.60;0.50;;;;;;;;;;5012154;28;20478;-76
2022/12/08 01:18:47;;;;;;;0.70;0.70;;;;;;;;;;5010046;28;20529;-77
2022/12/08 01:21:15;;;;;;;0.60;0.60;;;;;;;;;;5012167;28;20521;-77
2022/12/08 01:23:42;;;;;;;0.60;0.50;;;;;;;;;;5011232;28;20443;-76
2022/12/08 01:26:09;;;;;;;0.60;0.50;;;;;;;;;;5030883;28;20858;-76
2022/12/08 01:28:38;;;;;;;0.60;0.60;;;;;;;;;;5012933;28;20449;-75
2022/12/08 01:31:09;;;;;;;0.60;0.50;;;;;;;;;;5030513;28;20970;-76
2022/12/08 01:33:36;;;;;;;0.70;0.70;;;;;;;;;;5014178;28;20511;-76
2022/12/08 01:36:04;;;;;;;0.60;0.60;;;;;;;;;;5031275;28;20429;-76
2022/12/08 01:38:31;;;;;;;0.60;0.50;;;;;;;;;;5029321;28;20544;-75
2022/12/08 01:40:58;;;;;;;0.80;0.80;;;;;;;;;;5029159;28;20446;-76
2022/12/08 01:43:40;;;;;;;0.60;0.50;;;;;;;;;;5015222;28;20430;-76
2022/12/08 01:46:08;;;;;;;0.60;0.60;;;;;;;;;;4996281;28;20814;-75
2022/12/08 01:48:35;;;;;;;0.60;0.50;;;;;;;;;;5027767;28;20477;-75
2022/12/08 01:51:03;;;;;;;0.60;0.60;;;;;;;;;;5007115;28;20438;-76
2022/12/08 01:53:34;;;;;;;0.60;0.60;;;;;;;;;;5030525;28;20198;-75
2022/12/08 01:56:03;;;;;;;0.60;0.60;;;;;;;;;;5029447;28;20236;-76
2022/12/08 01:58:33;;;;;;;0.60;0.60;;;;;;;;;;5012895;28;20438;-76
2022/12/08 02:00:59;;;;;;;1.43;1.33;;;;;;;;;;5012942;28;20225;-76
2022/12/08 02:03:30;;;;;;;0.60;0.60;;;;;;;;;;5012538;28;20453;-76
2022/12/08 02:05:57;;;;;;;1.33;1.23;;;;;;;;;;5028226;28;20445;-76
2022/12/08 02:08:26;;;;;;;0.60;0.53;;;;;;;;;;5014522;28;20442;-76
2022/12/08 02:10:57;;;;;;;0.60;0.60;;;;;;;;;;5026334;28;20558;-76
2022/12/08 02:13:31;;;;;;;0.60;0.50;;;;;;;;;;5028154;28;20840;-76
2022/12/08 02:16:08;;;;;;;0.93;0.93;;;;;;;;;;5005392;28;20477;-76
2022/12/08 02:18:45;;;;;;;1.43;1.00;;;;;;;;;;5028925;28;21368;-76
2022/12/08 02:21:39;;;;;;;0.60;0.60;;;;;;;;;;5030083;28;20460;-76
2022/12/08 02:24:13;;;;;;;0.60;0.50;;;;;;;;;;5011244;28;20442;-76
2022/12/08 02:27:05;;;;;;;0.60;0.50;;;;;;;;;;5027297;28;20472;-76
2022/12/08 02:29:52;;;;;;;0.60;0.60;;;;;;;;;;5003673;28;20962;-76
2022/12/08 02:32:33;;;;;;;0.60;0.57;;;;;;;;;;5012595;28;20528;-75
2022/12/08 02:35:17;;;;;;;0.60;0.60;;;;;;;;;;5012102;28;20230;-76
2022/12/08 02:37:56;;;;;;;0.60;0.60;;;;;;;;;;5029448;28;20442;-76
2022/12/08 02:40:34;;;;;;;0.60;0.60;;;;;;;;;;5013449;28;21027;-75
2022/12/08 02:43:04;;;;;;;0.60;0.50;;;;;;;;;;5008605;28;20819;-76
2022/12/08 02:45:35;;;;;;;0.60;0.50;;;;;;;;;;5029841;28;21047;-76
2022/12/08 02:48:05;;;;;;;0.60;0.60;;;;;;;;;;5029733;28;20894;-76
2022/12/08 02:50:35;;;;;;;0.60;0.60;;;;;;;;;;5012877;28;20457;-76
2022/12/08 02:53:04;;;;;;;0.60;0.57;;;;;;;;;;5029238;28;20422;-75
2022/12/08 02:55:35;;;;;;;0.60;0.60;;;;;;;;;;5012794;28;20841;-76
2022/12/08 02:58:16;;;;;;;2.13;1.23;;;;;;;;;;5013632;28;20917;-76
2022/12/08 03:00:52;;;;;;;0.80;0.80;;;;;;;;;;5012830;28;20469;-76
2022/12/08 03:03:28;;;;;;;0.60;0.50;;;;;;;;;;5025248;28;20493;-76
2022/12/08 03:06:04;;;;;;;0.60;0.60;;;;;;;;;;5011760;28;20919;-76
2022/12/08 03:08:35;;;;;;;0.60;0.60;;;;;;;;;;5002910;28;20461;-76
2022/12/08 03:11:08;;;;;;;0.70;0.70;;;;;;;;;;5002337;28;20445;-75
2022/12/08 03:13:40;;;;;;;0.60;0.60;;;;;;;;;;5029097;28;20473;-76
2022/12/08 03:16:15;;;;;;;0.70;0.70;;;;;;;;;;5001111;28;20500;-75
2022/12/08 03:18:56;;;;;;;0.60;0.60;;;;;;;;;;5028806;28;20488;-76
2022/12/08 03:21:39;;;;;;;0.60;0.57;;;;;;;;;;5028832;28;20882;-76
2022/12/08 03:24:10;;;;;;;0.60;0.50;;;;;;;;;;5005396;28;20966;-76
2022/12/08 03:26:47;;;;;;;1.53;1.43;;;;;;;;;;5012638;28;20450;-75
2022/12/08 03:29:22;;;;;;;0.90;0.90;;;;;;;;;;5013844;28;20429;-75
2022/12/08 03:31:53;;;;;;;0.60;0.60;;;;;;;;;;5027130;28;20863;-75
2022/12/08 03:34:25;;;;;;;1.10;1.10;;;;;;;;;;5028383;28;20549;-76
2022/12/08 03:36:56;;;;;;;0.60;0.50;;;;;;;;;;5009736;28;20466;-75
2022/12/08 03:39:26;;;;;;;0.60;0.60;;;;;;;;;;5025509;28;20560;-76
2022/12/08 03:41:55;;;;;;;0.60;0.50;;;;;;;;;;5001324;28;20546;-75
2022/12/08 03:44:28;;;;;;;0.60;0.60;;;;;;;;;;5000558;28;20967;-75
2022/12/08 03:47:00;;;;;;;0.60;0.57;;;;;;;;;;5027202;28;20430;-74
2022/12/08 03:49:34;;;;;;;0.60;0.60;;;;;;;;;;5012519;28;20449;-75
2022/12/08 03:52:06;;;;;;;1.10;1.10;;;;;;;;;;5025807;28;20521;-74
2022/12/08 03:54:33;;;;;;;0.70;0.60;;;;;;;;;;5026031;28;20501;-74
2022/12/08 03:57:00;;;;;;;0.60;0.60;;;;;;;;;;5012883;28;20430;-75
2022/12/08 03:59:27;;;;;;;0.60;0.60;;;;;;;;;;5027797;28;20524;-74
2022/12/08 04:01:54;;;;;;;0.60;0.60;;;;;;;;;;5013168;28;20441;-74
2022/12/08 04:04:21;;;;;;;1.00;1.00;;;;;;;;;;5028303;28;20458;-74
2022/12/08 04:06:49;;;;;;;0.60;0.60;;;;;;;;;;5012996;28;20430;-76
2022/12/08 04:09:19;;;;;;;0.60;0.60;;;;;;;;;;5012086;28;21039;-76
2022/12/08 04:11:45;;;;;;;0.60;0.60;;;;;;;;;;5005560;28;20972;-76
2022/12/08 04:14:12;;;;;;;0.60;0.60;;;;;;;;;;4986115;28;20445;-76
2022/12/08 04:16:39;;;;;;;0.60;0.50;;;;;;;;;;5028217;28;20452;-75
2022/12/08 04:19:06;;;;;;;0.60;0.60;;;;;;;;;;5027832;28;20472;-76
2022/12/08 04:21:33;;;;;;;0.90;0.90;;;;;;;;;;5011464;28;20541;-74
2022/12/08 04:24:00;;;;;;;0.60;0.50;;;;;;;;;;5003830;28;20438;-74
2022/12/08 04:26:29;;;;;;;0.63;0.60;;;;;;;;;;5009332;28;20445;-74
2022/12/08 04:28:56;;;;;;;0.80;0.80;;;;;;;;;;5026736;28;20449;-74
2022/12/08 04:31:24;;;;;;;0.60;0.60;;;;;;;;;;5011770;28;20429;-75
2022/12/08 04:33:50;;;;;;;0.60;0.50;;;;;;;;;;5027512;28;20458;-74
2022/12/08 04:36:17;;;;;;;0.70;0.70;;;;;;;;;;5027858;28;20478;-74
2022/12/08 04:38:44;;;;;;;0.60;0.60;;;;;;;;;;5028093;28;20458;-74
2022/12/08 04:41:11;;;;;;;0.60;0.60;;;;;;;;;;5027128;28;20585;-74
2022/12/08 04:43:41;;;;;;;0.60;0.60;;;;;;;;;;5007105;28;20437;-74
2022/12/08 04:46:09;;;;;;;0.60;0.60;;;;;;;;;;5027898;28;20958;-74
2022/12/08 04:48:37;;;;;;;0.60;0.50;;;;;;;;;;5001294;28;20462;-75
2022/12/08 04:51:04;;;;;;;0.60;0.60;;;;;;;;;;5012373;28;20429;-74
2022/12/08 04:53:31;;;;;;;0.60;0.60;;;;;;;;;;5027727;28;20444;-75
2022/12/08 04:55:58;;;;;;;0.60;0.60;;;;;;;;;;5027547;28;20464;-74
2022/12/08 04:58:25;;;;;;;0.60;0.60;;;;;;;;;;5026503;28;20449;-74
2022/12/08 05:00:54;;;;;;;0.60;0.60;;;;;;;;;;5027566;28;20453;-74
2022/12/08 05:03:21;;;;;;;0.60;0.50;;;;;;;;;;5010284;28;21003;-74
2022/12/08 05:05:54;;;;;;;0.60;0.50;;;;;;;;;;5011000;28;20437;-74
2022/12/08 05:08:21;;;;;;;0.60;0.50;;;;;;;;;;4977272;28;20552;-74
2022/12/08 05:10:47;;;;;;;0.73;0.70;;;;;;;;;;5012238;28;20433;-75
2022/12/08 05:13:14;;;;;;;0.60;0.50;;;;;;;;;;5011629;28;20437;-74
2022/12/08 05:15:41;;;;;;;0.60;0.50;;;;;;;;;;5012184;28;20470;-73
2022/12/08 05:18:09;;;;;;;0.60;0.60;;;;;;;;;;5027103;28;20456;-74
2022/12/08 05:20:36;;;;;;;0.60;0.60;;;;;;;;;;5011994;28;20433;-74
2022/12/08 05:23:03;;;;;;;1.00;1.00;;;;;;;;;;4992153;28;20456;-74
2022/12/08 05:25:29;;;;;;;0.60;0.50;;;;;;;;;;5027004;28;20414;-74
2022/12/08 05:27:56;;;;;;;0.60;0.50;;;;;;;;;;5009971;28;20970;-74
2022/12/08 05:30:43;;;;;;;0.60;0.60;;;;;;;;;;5020012;28;20434;-75
2022/12/08 05:33:12;;;;;;;0.60;0.60;;;;;;;;;;5025928;28;20461;-74
2022/12/08 05:35:39;;;;;;;0.60;0.50;;;;;;;;;;5009934;28;20218;-75
2022/12/08 05:38:06;;;;;;;0.60;0.60;;;;;;;;;;5009369;28;20803;-74
2022/12/08 05:40:33;;;;;;;0.60;0.50;;;;;;;;;;5010724;28;20948;-74
2022/12/08 05:43:00;;;;;;;0.60;0.60;;;;;;;;;;5025928;28;20960;-74
2022/12/08 05:45:27;;;;;;;0.60;0.50;;;;;;;;;;5010381;28;20908;-74
2022/12/08 05:47:54;;;;;;;0.60;0.50;;;;;;;;;;5011854;28;20805;-74
2022/12/08 05:50:22;;;;;;;0.60;0.50;;;;;;;;;;5010962;28;20442;-75
2022/12/08 05:52:48;;;;;;;0.60;0.50;;;;;;;;;;5011750;28;20774;-75
2022/12/08 05:55:15;;;;;;;0.60;0.60;;;;;;;;;;5000353;28;20563;-74
2022/12/08 05:57:42;;;;;;;0.60;0.50;;;;;;;;;;5011979;28;20452;-75
2022/12/08 06:00:09;;;;;;;0.60;0.57;;;;;;;;;;5011694;28;20945;-75
2022/12/08 06:02:39;;;;;;;0.60;0.50;;;;;;;;;;5011568;28;20967;-75
2022/12/08 06:05:07;;;;;;;0.60;0.60;;;;;;;;;;5010394;28;20449;-73
2022/12/08 06:07:35;;;;;;;0.60;0.60;;;;;;;;;;4983995;28;20450;-74
2022/12/08 06:10:02;;;;;;;0.60;0.60;;;;;;;;;;5013649;28;20265;-74
2022/12/08 06:12:30;;;;;;;0.60;0.60;;;;;;;;;;5015192;28;20222;-74
2022/12/08 06:14:57;;;;;;;0.60;0.50;;;;;;;;;;5030019;28;20202;-75
2022/12/08 06:17:24;;;;;;;0.60;0.50;;;;;;;;;;5030264;28;20965;-75
2022/12/08 06:19:50;;;;;;;0.60;0.60;;;;;;;;;;5014508;28;20534;-74
2022/12/08 06:22:17;;;;;;;0.60;0.60;;;;;;;;;;5015131;28;20438;-74
2022/12/08 06:24:48;;;;;;;0.60;0.60;;;;;;;;;;5014907;28;20430;-75
2022/12/08 06:27:14;;;;;;;0.60;0.60;;;;;;;;;;5015045;28;20480;-74
2022/12/08 06:29:41;;;;;;;0.97;0.97;;;;;;;;;;5002856;28;20442;-76
2022/12/08 06:32:08;;;;;;;0.60;0.60;;;;;;;;;;5029748;28;20496;-75
2022/12/08 06:34:35;;;;;;;0.60;0.50;;;;;;;;;;5005083;28;20488;-75
2022/12/08 06:37:01;;;;;;;0.60;0.50;;;;;;;;;;5013245;28;20548;-75
2022/12/08 06:39:28;;;;;;;1.37;1.27;;;;;;;;;;5013418;28;20453;-75
2022/12/08 06:44:41;;;;;;;0.80;0.80;;;;;;;;;;5014675;28;20461;-75
2022/12/08 06:47:08;;;;;;;0.70;0.70;;;;;;;;;;5013324;28;20513;-75
2022/12/08 06:49:35;;;;;;;0.60;0.50;;;;;;;;;;5014526;28;20910;-75
2022/12/08 06:52:04;;;;;;;1.13;1.13;;;;;;;;;;4985660;28;20973;-75
2022/12/08 06:54:30;;;;;;;0.60;0.60;;;;;;;;;;5012968;28;20450;-75
2022/12/08 06:56:59;;;;;;;0.60;0.60;;;;;;;;;;5014233;28;20556;-75
2022/12/08 06:59:25;;;;;;;0.70;0.70;;;;;;;;;;5000751;28;20452;-75
2022/12/08 07:01:53;;;;;;;0.60;0.60;;;;;;;;;;5014226;28;20500;-76
2022/12/08 07:04:20;;;;;;;0.60;0.60;;;;;;;;;;5027519;28;20730;-75
2022/12/08 07:06:47;;;;;;;0.60;0.60;;;;;;;;;;5014357;28;20191;-75
2022/12/08 07:09:14;;;;;;;0.60;0.60;;;;;;;;;;5029428;28;20489;-75
2022/12/08 07:11:41;;;;;;;0.60;0.60;;;;;;;;;;5004669;28;20450;-75
2022/12/08 07:14:09;;;;;;;0.60;0.50;;;;;;;;;;5014090;28;20496;-75
2022/12/08 07:16:38;;;;;;;1.17;0.73;;;;;;;;;;5006349;28;21294;-75
2022/12/08 07:19:04;;;;;;;0.60;0.60;;;;;;;;;;5013679;28;20453;-75
2022/12/08 07:21:31;;;;;;;0.60;0.50;;;;;;;;;;5028964;28;20452;-75
2022/12/08 07:23:58;;;;;;;0.60;0.60;;;;;;;;;;5013997;28;20865;-75
2022/12/08 07:26:25;;;;;;;0.60;0.50;;;;;;;;;;5011199;28;20469;-75
2022/12/08 07:28:52;;;;;;;0.77;0.77;;;;;;;;;;5010325;28;20190;-75
2022/12/08 07:31:21;;;;;;;0.60;0.60;;;;;;;;;;5013591;28;20504;-75
2022/12/08 07:33:49;;;;;;;0.60;0.60;;;;;;;;;;4982401;28;20519;-75
2022/12/08 07:36:16;;;;;;;0.60;0.60;;;;;;;;;;5028575;28;20559;-74
2022/12/08 07:38:43;;;;;;;4.63;3.67;;;;;;;;;;5028863;28;20601;-75
2022/12/08 07:41:13;;;;;;;1.07;1.00;;;;;;;;;;5028756;28;20494;-74
2022/12/08 07:43:40;;;;;;;0.70;0.70;;;;;;;;;;5028591;28;20492;-75
2022/12/08 07:46:10;;;;;;;0.60;0.60;;;;;;;;;;5004603;28;20786;-75
2022/12/08 07:48:38;;;;;;;0.60;0.60;;;;;;;;;;4991183;28;20466;-76
2022/12/08 07:51:05;;;;;;;2.30;1.27;;;;;;;;;;5024883;28;20449;-76
2022/12/08 07:53:32;;;;;;;0.60;0.60;;;;;;;;;;5012499;28;20522;-75
2022/12/08 07:55:59;;;;;;;0.60;0.60;;;;;;;;;;5025765;28;20780;-76
2022/12/08 07:58:26;;;;;;;0.60;0.50;;;;;;;;;;5028343;28;20462;-76
2022/12/08 08:00:53;;;;;;;1.20;1.10;;;;;;;;;;5028366;28;20540;-76
2022/12/08 08:03:21;;;;;;;1.37;1.27;;;;;;;;;;5006618;28;20856;-75
2022/12/08 08:05:49;;;;;;;2.80;1.23;;;;;;;;;;5012382;28;20837;-76
2022/12/08 08:08:16;;;;;;;0.60;0.60;;;;;;;;;;5011676;28;20454;-76
2022/12/08 08:10:43;;;;;;;0.80;0.80;;;;;;;;;;5027977;28;20457;-76
2022/12/08 08:13:11;;;;;;;0.60;0.60;;;;;;;;;;5012093;28;20430;-76
2022/12/08 08:15:37;;;;;;;0.60;0.60;;;;;;;;;;5012481;28;20499;-76
2022/12/08 08:18:05;;;;;;;0.60;0.60;;;;;;;;;;4999913;28;20466;-77
2022/12/08 08:20:32;;;;;;;0.60;0.50;;;;;;;;;;5026679;28;20513;-76
2022/12/08 08:23:00;;;;;;;0.60;0.60;;;;;;;;;;5003240;28;20434;-77
2022/12/08 08:25:27;;;;;;;0.85;0.85;;;;;;;;;;5012511;28;20426;-76
2022/12/08 08:27:54;;;;;;;0.60;0.57;;;;;;;;;;5012587;28;20230;-76
2022/12/08 08:30:21;;;;;;;0.60;0.60;;;;;;;;;;5027389;28;20759;-77
2022/12/08 08:32:48;;;;;;;0.60;0.50;;;;;;;;;;5021136;28;20466;-76
2022/12/08 08:35:15;;;;;;;0.60;0.60;;;;;;;;;;5011934;28;20418;-76
2022/12/08 08:37:42;;;;;;;0.60;0.50;;;;;;;;;;4998017;28;20480;-76
2022/12/08 08:40:17;;;;;;;0.60;0.60;;;;;;;;;;5012208;28;20457;-76
2022/12/08 08:42:43;;;;;;;0.60;0.50;;;;;;;;;;5012131;28;20438;-76
2022/12/08 08:45:10;;;;;;;0.80;0.80;;;;;;;;;;5012396;28;20865;-76
2022/12/08 08:47:38;;;;;;;0.60;0.57;;;;;;;;;;5027454;28;20231;-76
2022/12/08 08:50:06;;;;;;;0.60;0.60;;;;;;;;;;5011851;28;20218;-76
2022/12/08 08:52:33;;;;;;;0.60;0.60;;;;;;;;;;5005503;28;20453;-76
2022/12/08 08:55:00;;;;;;;0.60;0.50;;;;;;;;;;5027422;28;20227;-76
2022/12/08 08:57:29;;;;;;;1.38;1.15;;;;;;;;;;5011910;28;20465;-76
2022/12/08 08:59:55;;;;;;;0.60;0.60;;;;;;;;;;5008573;28;20242;-76
2022/12/08 09:02:22;;;;;;;0.60;0.50;;;;;;;;;;5012051;28;20457;-76
2022/12/08 09:05:08;;;;;;;0.80;0.80;;;;;;;;;;5005123;28;20505;-76
2022/12/08 09:07:35;;;;;;;0.60;0.60;;;;;;;;;;5012208;28;20202;-77
2022/12/08 09:10:03;;;;;;;0.60;0.60;;;;;;;;;;5010393;28;20207;-76
2022/12/08 09:12:31;;;;;;;0.60;0.60;;;;;;;;;;5027023;28;20469;-77
2022/12/08 09:15:00;;;;;;;1.35;1.25;;;;;;;;;;5012089;28;20463;-76
2022/12/08 09:17:27;;;;;;;0.60;0.60;;;;;;;;;;5010700;28;20252;-76
2022/12/08 09:19:54;;;;;;;0.95;0.95;;;;;;;;;;5026955;28;20449;-76
2022/12/08 09:22:21;;;;;;;0.80;0.80;;;;;;;;;;5012105;28;20230;-77
2022/12/08 09:24:47;;;;;;;1.25;1.15;;;;;;;;;;5026144;28;20202;-76
2022/12/08 09:27:15;;;;;;;0.60;0.60;;;;;;;;;;5027410;28;20213;-76
2022/12/08 09:29:46;;;;;;;1.17;1.07;;;;;;;;;;5002945;28;20206;-76
2022/12/08 09:32:13;;;;;;;1.13;1.03;;;;;;;;;;5011968;28;20437;-76
2022/12/08 09:34:39;;;;;;;0.60;0.50;;;;;;;;;;5012117;28;20992;-76
2022/12/08 09:37:06;;;;;;;0.60;0.60;;;;;;;;;;5011809;28;20867;-76
2022/12/08 09:39:33;;;;;;;0.70;0.70;;;;;;;;;;5025658;28;20449;-76
2022/12/08 09:42:00;;;;;;;0.60;0.57;;;;;;;;;;5027119;28;20472;-76
2022/12/08 09:44:41;;;;;;;0.60;0.60;;;;;;;;;;5028339;28;20972;-76
2022/12/08 09:47:13;;;;;;;0.68;0.68;;;;;;;;;;5030828;28;20309;-76
2022/12/08 09:49:42;;;;;;;0.83;0.83;;;;;;;;;;5014911;28;20257;-76
2022/12/08 09:52:10;;;;;;;0.77;0.77;;;;;;;;;;5015768;28;20430;-76
2022/12/08 09:54:38;;;;;;;0.60;0.60;;;;;;;;;;5030240;28;20460;-76
2022/12/08 09:57:06;;;;;;;0.60;0.60;;;;;;;;;;5014285;28;20539;-76
2022/12/08 09:59:34;;;;;;;1.67;1.27;;;;;;;;;;5015142;28;20796;-75
2022/12/08 10:02:02;;;;;;;0.60;0.60;;;;;;;;;;5015186;28;20484;-76
2022/12/08 10:04:32;;;;;;;0.70;0.70;;;;;;;;;;5028240;28;20435;-76
2022/12/08 10:07:04;;;;;;;0.60;0.60;;;;;;;;;;5015617;28;20806;-76
2022/12/08 10:09:38;;;;;;;0.97;0.97;;;;;;;;;;5015051;28;20432;-74
2022/12/08 10:12:12;;;;;;;0.63;0.63;;;;;;;;;;4994712;28;20456;-76
2022/12/08 10:14:41;;;;;;;0.60;0.60;;;;;;;;;;5030464;28;20445;-76
2022/12/08 10:17:10;;;;;;;0.70;0.70;;;;;;;;;;4988369;28;20488;-76
2022/12/08 10:19:39;;;;;;;0.60;0.60;;;;;;;;;;5013308;28;20548;-76
2022/12/08 10:22:21;;;;;;;0.60;0.60;;;;;;;;;;5003334;28;20210;-76
2022/12/08 10:24:52;;;;;;;0.60;0.60;;;;;;;;;;5025414;28;20445;-76
2022/12/08 10:27:19;;;;;;;0.60;0.57;;;;;;;;;;5012806;28;20426;-76
2022/12/08 10:29:46;;;;;;;0.60;0.60;;;;;;;;;;5012537;28;20432;-76
2022/12/08 10:32:15;;;;;;;0.60;0.60;;;;;;;;;;5030015;28;20484;-76
2022/12/08 10:37:56;;;;;;;0.60;0.60;;;;;;;;;;5081478;28;21101;-75
2022/12/08 10:40:23;;;;;;;0.60;0.60;;;;;;;;;;5080310;28;20431;-75
2022/12/08 10:42:51;;;;;;;0.60;0.60;;;;;;;;;;5072923;28;20810;-75
2022/12/08 10:45:23;;;;;;;0.70;0.70;;;;;;;;;;5051173;28;20438;-76
2022/12/08 10:47:55;;;;;;;0.70;0.70;;;;;;;;;;5066287;28;20542;-75
2022/12/08 10:50:26;;;;;;;0.60;0.60;;;;;;;;;;5067009;28;20453;-76
2022/12/08 10:52:56;;;;;;;0.70;0.70;;;;;;;;;;5068836;28;20431;-75
2022/12/08 10:55:23;;;;;;;0.60;0.60;;;;;;;;;;5067062;28;20439;-75
2022/12/08 10:57:50;;;;;;;0.80;0.80;;;;;;;;;;5052514;28;20428;-75
2022/12/08 11:00:18;;;;;;;0.67;0.67;;;;;;;;;;5055082;28;20489;-75
2022/12/08 11:02:50;;;;;;;0.60;0.60;;;;;;;;;;5051922;28;20463;-75
2022/12/08 11:05:18;;;;;;;0.60;0.60;;;;;;;;;;5053588;28;21260;-76
2022/12/08 11:07:46;;;;;;;0.60;0.53;;;;;;;;;;5051428;28;20459;-75
2022/12/08 11:10:16;;;;;;;0.60;0.60;;;;;;;;;;5069858;28;20444;-75
2022/12/08 11:12:43;;;;;;;0.60;0.60;;;;;;;;;;5059528;28;20470;-75
2022/12/08 11:15:14;;;;;;;0.60;0.60;;;;;;;;;;5062475;28;20963;-75
2022/12/08 11:17:44;;;;;;;0.60;0.60;;;;;;;;;;5060385;28;20562;-75
2022/12/08 11:20:19;;;;;;;1.10;1.10;;;;;;;;;;5070842;28;20495;-75
2022/12/08 11:22:50;;;;;;;0.60;0.60;;;;;;;;;;5061554;28;20454;-75
2022/12/08 11:25:19;;;;;;;0.60;0.60;;;;;;;;;;5062932;28;20423;-75
2022/12/08 11:27:47;;;;;;;0.60;0.60;;;;;;;;;;5066405;28;20444;-75
2022/12/08 11:30:16;;;;;;;0.60;0.60;;;;;;;;;;5059912;28;20432;-76
2022/12/08 11:32:45;;;;;;;0.60;0.60;;;;;;;;;;5056664;28;20535;-75
2022/12/08 11:35:16;;;;;;;0.60;0.60;;;;;;;;;;5073666;28;20434;-75
2022/12/08 11:37:46;;;;;;;0.60;0.60;;;;;;;;;;5069023;28;20474;-75
2022/12/08 11:40:16;;;;;;;0.60;0.60;;;;;;;;;;5049186;28;20501;-75
2022/12/08 11:42:50;;;;;;;0.60;0.60;;;;;;;;;;5056016;28;20431;-75
2022/12/08 11:45:20;;;;;;;0.60;0.60;;;;;;;;;;5058819;28;20951;-75
2022/12/08 11:47:52;;;;;;;0.70;0.70;;;;;;;;;;5040243;28;20472;-75
2022/12/08 11:50:25;;;;;;;0.60;0.60;;;;;;;;;;5047980;28;20544;-74
2022/12/08 11:52:52;;;;;;;0.60;0.60;;;;;;;;;;5047874;28;20793;-75
2022/12/08 11:55:29;;;;;;;0.60;0.60;;;;;;;;;;5057195;28;20461;-75
2022/12/08 11:58:11;;;;;;;0.60;0.50;;;;;;;;;;5051131;28;20467;-75
2022/12/08 12:00:39;;;;;;;0.60;0.60;;;;;;;;;;5053875;28;20428;-75
2022/12/08 12:03:10;;;;;;;0.60;0.50;;;;;;;;;;5061267;28;20538;-74
2022/12/08 12:05:44;;;;;;;0.60;0.60;;;;;;;;;;5060940;28;20436;-75
2022/12/08 12:08:40;;;;;;;0.60;0.60;;;;;;;;;;5049811;28;20435;-75
2022/12/08 12:12:11;;;;;;;0.60;0.60;;;;;;;;;;5061184;28;20526;-75
2022/12/08 12:14:10;;;;;;;0.60;0.60;;;;;;;;;;5060196;28;21005;-75
2022/12/08 12:16:44;;;;;;;2.03;1.47;;;;;;;;;;5046534;28;20478;-75
2022/12/08 12:19:13;;;;;;;0.60;0.60;;;;;;;;;;5054811;28;20515;-75
2022/12/08 12:21:42;;;;;;;0.60;0.60;;;;;;;;;;5050907;28;20451;-75
2022/12/08 12:24:14;;;;;;;0.60;0.60;;;;;;;;;;5046300;28;20452;-75
2022/12/08 12:26:52;;;;;;;0.60;0.60;;;;;;;;;;5052588;28;20436;-75
2022/12/08 12:29:22;;;;;;;0.60;0.60;;;;;;;;;;5054087;28;20481;-75
2022/12/08 12:31:51;;;;;;;0.80;0.80;;;;;;;;;;5049637;28;20445;-74
2022/12/08 12:34:20;;;;;;;0.70;0.70;;;;;;;;;;5056044;28;20832;-75
2022/12/08 12:36:49;;;;;;;0.90;0.90;;;;;;;;;;5054732;28;20479;-75
2022/12/08 12:39:18;;;;;;;0.60;0.60;;;;;;;;;;5058389;28;20429;-75
2022/12/08 12:41:47;;;;;;;0.70;0.70;;;;;;;;;;5045156;28;20959;-75
2022/12/08 12:44:35;;;;;;;0.60;0.60;;;;;;;;;;5058929;28;20445;-75
2022/12/08 12:47:38;;;;;;;0.60;0.60;;;;;;;;;;5048520;28;20466;-74
2022/12/08 12:50:06;;;;;;;0.60;0.60;;;;;;;;;;5055671;28;20439;-74
2022/12/08 12:52:52;;;;;;;0.60;0.60;;;;;;;;;;5067715;28;20452;-75
2022/12/08 12:55:43;;;;;;;0.60;0.60;;;;;;;;;;5046285;28;20436;-75
2022/12/08 12:58:21;;;;;;;0.60;0.60;;;;;;;;;;5067184;28;20474;-75
2022/12/08 13:01:12;;;;;;;0.70;0.60;;;;;;;;;;5048806;28;20423;-74
2022/12/08 13:03:40;;;;;;;0.60;0.60;;;;;;;;;;5052505;28;20468;-75
2022/12/08 13:06:10;;;;;;;0.60;0.60;;;;;;;;;;5054245;28;20423;-75
2022/12/08 13:08:48;;;;;;;0.60;0.60;;;;;;;;;;5070199;28;20464;-75
2022/12/08 13:11:14;;;;;;;0.60;0.60;;;;;;;;;;5054510;28;20432;-75
2022/12/08 13:13:54;;;;;;;0.80;0.80;;;;;;;;;;5039282;28;20440;-75
2022/12/08 13:16:23;;;;;;;0.60;0.60;;;;;;;;;;5058069;28;20504;-75
2022/12/08 13:19:12;;;;;;;0.60;0.60;;;;;;;;;;5053884;28;20455;-75
2022/12/08 13:21:39;;;;;;;0.60;0.60;;;;;;;;;;5050053;28;20447;-75
2022/12/08 13:24:16;;;;;;;0.60;0.60;;;;;;;;;;5045915;28;20497;-75
2022/12/08 13:26:44;;;;;;;0.60;0.60;;;;;;;;;;5049659;28;20432;-75
2022/12/08 13:29:16;;;;;;;0.60;0.60;;;;;;;;;;5051758;28;20543;-75
2022/12/08 13:31:45;;;;;;;0.83;0.83;;;;;;;;;;5051144;28;20842;-75
2022/12/08 13:34:18;;;;;;;0.60;0.60;;;;;;;;;;5050748;28;20468;-74
2022/12/08 13:36:53;;;;;;;0.70;0.70;;;;;;;;;;5051003;28;20487;-75
2022/12/08 13:39:23;;;;;;;0.60;0.60;;;;;;;;;;5046927;28;20448;-75
2022/12/08 13:41:55;;;;;;;0.60;0.60;;;;;;;;;;5046516;28;20503;-75
2022/12/08 13:44:26;;;;;;;0.63;0.63;;;;;;;;;;5039203;28;20441;-75
2022/12/08 13:47:17;;;;;;;6.40;2.60;;;;;;;;;;5037926;28;20451;-75
2022/12/08 13:50:01;;;;;;;0.60;0.60;;;;;;;;;;5045773;28;20437;-75
2022/12/08 13:52:53;;;;;;;0.60;0.60;;;;;;;;;;5038245;28;20435;-75
2022/12/08 13:55:41;;;;;;;0.60;0.60;;;;;;;;;;5036791;28;20441;-75
2022/12/08 13:58:30;;;;;;;0.60;0.60;;;;;;;;;;5045772;28;20466;-75
2022/12/08 14:01:00;;;;;;;0.60;0.60;;;;;;;;;;5057325;28;20427;-75
2022/12/08 14:03:29;;;;;;;0.60;0.60;;;;;;;;;;5033943;28;20467;-75
2022/12/08 14:05:57;;;;;;;0.60;0.57;;;;;;;;;;5046699;28;20427;-75
2022/12/08 14:08:39;;;;;;;0.70;0.60;;;;;;;;;;5053972;28;20438;-74
2022/12/08 14:11:32;;;;;;;0.60;0.60;;;;;;;;;;5050373;28;20953;-74
2022/12/08 14:14:03;;;;;;;0.60;0.60;;;;;;;;;;5055749;28;20519;-75
2022/12/08 14:16:32;;;;;;;0.60;0.60;;;;;;;;;;5057942;28;20472;-74
2022/12/08 14:19:04;;;;;;;0.60;0.60;;;;;;;;;;5052927;28;20461;-76
2022/12/08 14:21:32;;;;;;;0.60;0.60;;;;;;;;;;5034224;28;20433;-73
2022/12/08 14:24:03;;;;;;;0.60;0.60;;;;;;;;;;5052017;28;20548;-74
2022/12/08 14:26:34;;;;;;;0.67;0.67;;;;;;;;;;5042494;28;20529;-74
2022/12/08 14:29:01;;;;;;;0.60;0.60;;;;;;;;;;5042316;28;20996;-74
2022/12/08 14:31:28;;;;;;;0.70;0.70;;;;;;;;;;5043224;28;20476;-74
2022/12/08 14:33:55;;;;;;;0.87;0.87;;;;;;;;;;5053208;28;20452;-75
2022/12/08 14:36:24;;;;;;;0.60;0.60;;;;;;;;;;5047324;28;20468;-75
2022/12/08 14:38:54;;;;;;;0.90;0.90;;;;;;;;;;5050292;28;20439;-74
2022/12/08 14:41:25;;;;;;;0.70;0.70;;;;;;;;;;5057312;28;20467;-74
2022/12/08 14:44:00;;;;;;;0.60;0.60;;;;;;;;;;5059569;28;20435;-75
2022/12/08 14:46:27;;;;;;;0.60;0.57;;;;;;;;;;5049089;28;20439;-75
2022/12/08 14:48:55;;;;;;;0.70;0.70;;;;;;;;;;5049451;28;20920;-75
2022/12/08 14:51:26;;;;;;;0.70;0.70;;;;;;;;;;5051760;28;20529;-75
2022/12/08 14:53:54;;;;;;;0.60;0.60;;;;;;;;;;5050682;28;20784;-75
2022/12/08 14:56:23;;;;;;;0.67;0.67;;;;;;;;;;5043635;28;20796;-75
2022/12/08 14:59:00;;;;;;;0.67;0.60;;;;;;;;;;5062535;28;20439;-75
2022/12/08 15:01:27;;;;;;;0.63;0.60;;;;;;;;;;5063109;28;20438;-75
2022/12/08 15:03:58;;;;;;;0.60;0.60;;;;;;;;;;5058256;28;20463;-75
2022/12/08 15:06:27;;;;;;;0.60;0.60;;;;;;;;;;5035225;28;20834;-75
2022/12/08 15:08:55;;;;;;;20.33;3.13;;;;;;;;;;5052353;28;20467;-74
2022/12/08 15:11:30;;;;;;;0.60;0.60;;;;;;;;;;5049618;28;20476;-75
2022/12/08 15:13:57;;;;;;;0.60;0.50;;;;;;;;;;5050714;28;20440;-74